WetterOnline ( https://www.wetteronline.de )

Wetter aktuell Eisfeld

Aktuelles Wetter: Coburg (323m)

6-stündlich | Neueste Meldungen
Ortszeit Temperatur Wetter
Do, 18.04. 14:00 7.4° C bedeckt
Do, 18.04. 8:00 3.3° C Regen
Do, 18.04. 2:00 2.6° C bedeckt
Mi, 17.04. 20:00 4.9° C wolkig
Mi, 17.04. 14:00 8.1° C bedeckt
Mi, 17.04. 8:00 4.5° C bedeckt
Mi, 17.04. 2:00 3.4° C bewölkt
Di, 16.04. 20:00 5.4° C bedeckt
Ortszeit Temperatur Wetter
Do, 18.04. 16:00 8.9° C leicht bewölkt
Do, 18.04. 15:50 8.9° C leicht bewölkt
Do, 18.04. 15:40 9.1° C fast wolkenlos
Do, 18.04. 15:30 7.7° C wolkig
Do, 18.04. 15:20 7.7° C wolkig
Do, 18.04. 15:10 7.3° C leichter Regen
Do, 18.04. 15:00 8.7° C wolkig
Do, 18.04. 14:30 8.0° C bedeckt
Do, 18.04. 14:00 7.4° C bedeckt
Do, 18.04. 13:30 5.6° C bewölkt
Do, 18.04. 13:00 7.8° C bedeckt
Ortszeit Relative Feuchte Sichtweite
Do, 18.04. 14:00 66% >70 km
Do, 18.04. 8:00 94% 19 km
Do, 18.04. 2:00 92% 45 km
Mi, 17.04. 20:00 86% 55 km
Mi, 17.04. 14:00 64% 55 km
Mi, 17.04. 8:00 87% 40 km
Mi, 17.04. 2:00 92% 35 km
Di, 16.04. 20:00 80% >70 km
Ortszeit Relative Feuchte Sichtweite
Do, 18.04. 16:00 54% 60 km
Do, 18.04. 15:50 54% -
Do, 18.04. 15:40 55% -
Do, 18.04. 15:30 63% >70 km
Do, 18.04. 15:20 63% -
Do, 18.04. 15:10 66% -
Do, 18.04. 15:00 59% >70 km
Do, 18.04. 14:30 57% 65 km
Do, 18.04. 14:00 66% >70 km
Do, 18.04. 13:30 73% 50 km
Do, 18.04. 13:00 61% >70 km
Ortszeit Niederschlagsmenge Niederschlagsart
Do, 18.04. 14:00 1 l/m2 in 6 Std. Regen
Do, 18.04. 8:00 0.3 l/m2 in 12 Std. Regen
Do, 18.04. 2:00 0.3 l/m2 in 6 Std. Regen
Mi, 17.04. 20:00 0.9 l/m2 in 12 Std. Regen
Mi, 17.04. 14:00 0.1 l/m2 in 6 Std. Regen
Mi, 17.04. 8:00 0.1 l/m2 in 12 Std. Regen
Mi, 17.04. 2:00 0.1 l/m2 in 6 Std. Regen
Di, 16.04. 20:00 4 l/m2 in 12 Std. Regen
Ortszeit Niederschlagsmenge Niederschlagsart
Do, 18.04. 16:00 <0.05 l/m2 in 1 Std. Regen
Do, 18.04. 15:50 keine Meldung -
Do, 18.04. 15:40 keine Meldung -
Do, 18.04. 15:30 <0.05 l/m2 in 30 Min Schneeregen
Do, 18.04. 15:20 keine Meldung -
Do, 18.04. 15:10 keine Meldung -
Do, 18.04. 15:00 0.0 l/m2 in 1 Std. -
Do, 18.04. 14:30 0.0 l/m2 in 30 Min -
Do, 18.04. 14:00 0.8 l/m2 in 1 Std. Regen
Do, 18.04. 13:30 0.8 l/m2 in 30 Min Schneeregen
Do, 18.04. 13:00 0.0 l/m2 in 1 Std. -
Ortszeit Stärke Spitze Richtung
km/h Bft. km/h Grad Sektor
Do, 18.04. 14:00 17 3 31 360° N
Do, 18.04. 8:00 4 1 11 240° SW
Do, 18.04. 2:00 4 1 22 40° NO
Mi, 17.04. 20:00 9 2 26 80° O
Mi, 17.04. 14:00 4 1 29 20° N
Mi, 17.04. 8:00 4 1 14 290° W
Mi, 17.04. 2:00 9 2 33 280° W
Di, 16.04. 20:00 22 4 57 320° NW
Ortszeit Stärke Spitze Richtung
km/h Bft. km/h Grad Sektor
Do, 18.04. 16:00 15 3 33 350° N
Do, 18.04. 15:50 15 3 - 350° N
Do, 18.04. 15:40 14 3 - 360° N
Do, 18.04. 15:30 13 3 33 10° N
Do, 18.04. 15:20 13 3 - 10° N
Do, 18.04. 15:10 20 4 - 40° NO
Do, 18.04. 15:00 13 3 26 80° O
Do, 18.04. 14:30 17 3 26 60° NO
Do, 18.04. 14:00 17 3 31 360° N
Do, 18.04. 13:30 14 3 32 50° NO
Do, 18.04. 13:00 7 2 25 360° N
Ortszeit Untergrenze Bedeckung Gattung
total tief tief mittel hoch
Do, 18.04. 14:00 960 m 8/8 8/8 - - -
Do, 18.04. 8:00 510 m 8/8 8/8 - - -
Do, 18.04. 2:00 1500 m 8/8 8/8 - - -
Mi, 17.04. 20:00 1800 m 8/8 1/8 - - -
Mi, 17.04. 14:00 1350 m 8/8 8/8 - - -
Mi, 17.04. 8:00 690 m 8/8 8/8 - - -
Mi, 17.04. 2:00 510 m 7/8 7/8 - - -
Di, 16.04. 20:00 540 m 8/8 8/8 - - -
Ortszeit Bedeckungsgrad in Achtel und Wolkenuntergrenze
Do, 18.04. 16:00 1(1260m)
Do, 18.04. 15:50 1(1260m) 2(2100m)
Do, 18.04. 15:40 1
Do, 18.04. 15:30 1(900m) 4(1440m) 6(1800m)
Do, 18.04. 15:20 1(900m) 4(1440m) 6(1800m)
Do, 18.04. 15:10 7
Do, 18.04. 15:00 3(1290m) 5(2100m)
Do, 18.04. 14:30 1(1470m) 8(1800m)
Do, 18.04. 14:00 1(960m) 7(1800m) 8(2100m)
Do, 18.04. 13:30 1(780m) 6(1800m) 7(2100m)
Do, 18.04. 13:00 2(990m) 3(1230m) 8(1800m)
Ortszeit Luftdruck NN (hPa) Tendenz (hPa in 3 Std.)
Do, 18.04. 14:00 1017 + 0,6
Do, 18.04. 8:00 1015 + 1,6
Do, 18.04. 2:00 1012 + 0,7
Mi, 17.04. 20:00 1010 + 0,6
Mi, 17.04. 14:00 1009 + 0,1
Mi, 17.04. 8:00 1009 + 1,3
Mi, 17.04. 2:00 1008 + 0,8
Di, 16.04. 20:00 1004 + 2,0
Ortszeit Luftdruck NN (hPa) Tendenz (hPa in 3 Std.)
Do, 18.04. 16:00 1017 + 0,6
Do, 18.04. 15:50 1017 keine Meldung
Do, 18.04. 15:40 1017 keine Meldung
Do, 18.04. 15:30 1017 + 0,4
Do, 18.04. 15:20 1017 keine Meldung
Do, 18.04. 15:10 1017 keine Meldung
Do, 18.04. 15:00 1016 + 0,3
Do, 18.04. 14:30 1016 + 0,3
Do, 18.04. 14:00 1017 + 0,6
Do, 18.04. 13:30 1017 + 0,8
Do, 18.04. 13:00 1016 + 0,9
Ortszeit Schneehöhe (cm)
Do, 18.04. 14:00 0
Do, 18.04. 8:00 0
Do, 18.04. 2:00 0
Mi, 17.04. 20:00 0
Mi, 17.04. 14:00 0
Mi, 17.04. 8:00 0
Mi, 17.04. 2:00 0
Di, 16.04. 20:00 0
Ortszeit Schneehöhe (cm)
Do, 18.04. 16:00 0
Do, 18.04. 15:50 0
Do, 18.04. 15:40 -
Do, 18.04. 15:30 0
Do, 18.04. 15:20 0
Do, 18.04. 15:10 -
Do, 18.04. 15:00 0
Do, 18.04. 14:30 0
Do, 18.04. 14:00 0
Do, 18.04. 13:30 0
Do, 18.04. 13:00 0
Link zu dieser Seite / Seite empfehlen

Das Wetter in ...